createdAt,value
2022-12-05T00:02:15.977Z,100.00
2022-12-05T00:04:55.847Z,100.00
2022-12-05T00:07:25.732Z,100.00
2022-12-05T00:09:58.999Z,100.00
2022-12-05T00:12:29.564Z,100.00
2022-12-05T00:14:59.133Z,100.00
2022-12-05T00:17:40.566Z,100.00
2022-12-05T00:20:10.890Z,100.00
2022-12-05T00:22:43.716Z,100.00
2022-12-05T00:25:31.971Z,100.00
2022-12-05T00:28:04.928Z,100.00
2022-12-05T00:30:37.624Z,100.00
2022-12-05T00:33:14.391Z,100.00
2022-12-05T00:35:49.319Z,100.00
2022-12-05T00:42:33.223Z,100.00
2022-12-05T00:45:23.883Z,100.00
2022-12-05T00:47:58.999Z,100.00
2022-12-05T00:50:38.560Z,100.00
2022-12-05T00:53:08.549Z,100.00
2022-12-05T00:55:38.585Z,100.00
2022-12-05T00:58:08.507Z,100.00
2022-12-05T01:00:38.378Z,100.00
2022-12-05T01:03:09.043Z,100.00
2022-12-05T01:05:37.779Z,100.00
2022-12-05T01:08:08.778Z,100.00
2022-12-05T01:10:38.222Z,100.00
2022-12-05T01:13:08.397Z,100.00
2022-12-05T01:15:38.482Z,100.00
2022-12-05T01:18:10.502Z,100.00
2022-12-05T01:20:45.007Z,100.00
2022-12-05T01:23:15.877Z,100.00
2022-12-05T01:25:47.356Z,100.00
2022-12-05T01:28:20.117Z,100.00
2022-12-05T01:30:51.023Z,100.00
2022-12-05T01:33:21.236Z,100.00
2022-12-05T01:35:54.808Z,100.00
2022-12-05T01:38:26.796Z,100.00
2022-12-05T01:41:04.923Z,100.00
2022-12-05T01:43:38.840Z,100.00
2022-12-05T01:46:09.465Z,100.00
2022-12-05T01:48:40.028Z,100.00
2022-12-05T01:51:09.818Z,100.00
2022-12-05T01:53:42.999Z,100.00
2022-12-05T01:56:13.915Z,100.00
2022-12-05T01:58:46.713Z,100.00
2022-12-05T02:01:20.989Z,100.00
2022-12-05T02:03:57.311Z,100.00
2022-12-05T02:06:33.589Z,100.00
2022-12-05T02:09:05.618Z,100.00
2022-12-05T02:11:44.024Z,100.00
2022-12-05T02:14:34.071Z,100.00
2022-12-05T02:17:37.546Z,100.00
2022-12-05T02:20:36.705Z,100.00
2022-12-05T02:23:54.354Z,100.00
2022-12-05T02:26:54.612Z,100.00
2022-12-05T02:30:01.836Z,100.00
2022-12-05T02:33:04.956Z,100.00
2022-12-05T02:36:30.967Z,100.00
2022-12-05T02:39:27.412Z,100.00
2022-12-05T02:42:27.155Z,100.00
2022-12-05T02:45:15.145Z,100.00
2022-12-05T02:47:56.330Z,100.00
2022-12-05T02:50:40.216Z,100.00
2022-12-05T02:53:19.565Z,100.00
2022-12-05T02:55:53.812Z,100.00
2022-12-05T02:58:36.737Z,100.00
2022-12-05T03:01:10.853Z,100.00
2022-12-05T03:03:45.756Z,100.00
2022-12-05T03:13:15.896Z,100.00
2022-12-05T03:15:55.721Z,100.00
2022-12-05T03:18:38.555Z,100.00
2022-12-05T03:21:35.219Z,100.00
2022-12-05T03:24:17.251Z,100.00
2022-12-05T03:27:12.208Z,100.00
2022-12-05T03:30:04.855Z,100.00
2022-12-05T03:33:13.284Z,100.00
2022-12-05T03:35:49.521Z,100.00
2022-12-05T03:38:53.412Z,100.00
2022-12-05T03:41:42.475Z,100.00
2022-12-05T03:44:42.482Z,100.00
2022-12-05T03:47:23.498Z,100.00
2022-12-05T03:50:04.951Z,100.00
2022-12-05T03:53:18.471Z,100.00
2022-12-05T03:55:59.126Z,100.00
2022-12-05T03:58:52.839Z,100.00
2022-12-05T04:01:34.765Z,100.00
2022-12-05T04:04:25.611Z,100.00
2022-12-05T04:06:58.754Z,100.00
2022-12-05T04:09:56.640Z,100.00
2022-12-05T04:12:29.863Z,100.00
2022-12-05T04:15:20.145Z,100.00
2022-12-05T04:17:59.025Z,100.00
2022-12-05T04:20:50.444Z,100.00
2022-12-05T04:23:21.641Z,100.00
2022-12-05T04:26:04.886Z,100.00
2022-12-05T04:28:37.626Z,100.00
2022-12-05T04:31:15.427Z,100.00
2022-12-05T04:34:01.391Z,100.00
2022-12-05T04:36:40.832Z,99.77
2022-12-05T04:39:26.563Z,99.86
2022-12-05T04:42:02.459Z,99.94
2022-12-05T04:44:37.152Z,99.90
2022-12-05T04:47:11.388Z,99.80
2022-12-05T04:49:54.552Z,99.88
2022-12-05T04:52:24.198Z,99.81
2022-12-05T04:55:02.244Z,99.61
2022-12-05T04:57:41.167Z,99.56
2022-12-05T05:00:11.339Z,99.47
2022-12-05T05:02:48.714Z,99.64
2022-12-05T05:05:20.159Z,99.50
2022-12-05T05:07:54.964Z,99.43
2022-12-05T05:10:45.769Z,99.51
2022-12-05T05:13:17.769Z,99.66
2022-12-05T05:15:47.871Z,99.69
2022-12-05T05:18:17.101Z,99.70
2022-12-05T05:20:45.956Z,99.73
2022-12-05T05:23:15.212Z,99.86
2022-12-05T05:25:44.733Z,99.68
2022-12-05T05:28:13.495Z,99.42
2022-12-05T05:30:44.621Z,99.25
2022-12-05T05:33:16.781Z,99.42
2022-12-05T05:35:46.256Z,99.51
2022-12-05T05:38:18.020Z,99.43
2022-12-05T05:40:48.361Z,99.38
2022-12-05T05:43:20.956Z,99.23
2022-12-05T05:45:49.428Z,99.31
2022-12-05T05:48:23.208Z,99.34
2022-12-05T05:51:00.398Z,99.63
2022-12-05T05:53:38.834Z,99.56
2022-12-05T05:56:32.955Z,99.47
2022-12-05T05:59:05.836Z,99.57
2022-12-05T06:01:37.808Z,99.72
2022-12-05T06:04:08.581Z,99.70
2022-12-05T06:06:37.622Z,99.64
2022-12-05T06:09:10.800Z,99.46
2022-12-05T06:11:43.337Z,99.62
2022-12-05T06:14:24.999Z,99.70
2022-12-05T06:17:28.599Z,99.61
2022-12-05T06:20:36.306Z,99.52
2022-12-05T06:23:42.750Z,99.64
2022-12-05T06:26:52.014Z,99.64
2022-12-05T06:29:52.574Z,99.65
2022-12-05T06:32:48.477Z,99.68
2022-12-05T06:35:32.906Z,99.73
2022-12-05T06:38:13.212Z,99.71
2022-12-05T06:41:00.226Z,99.68
2022-12-05T06:43:40.324Z,99.66
2022-12-05T06:46:19.726Z,99.87
2022-12-05T06:49:03.814Z,99.82
2022-12-05T06:51:44.000Z,99.74
2022-12-05T06:54:25.347Z,99.72
2022-12-05T06:57:03.612Z,99.83
2022-12-05T06:59:43.260Z,99.66
2022-12-05T07:02:21.924Z,99.53
2022-12-05T07:05:07.421Z,99.63
2022-12-05T07:07:54.995Z,99.35
2022-12-05T07:10:38.927Z,99.66
2022-12-05T07:13:24.075Z,99.61
2022-12-05T07:16:04.567Z,99.42
2022-12-05T07:18:42.661Z,99.53
2022-12-05T07:21:22.711Z,99.52
2022-12-05T07:24:07.941Z,99.60
2022-12-05T07:26:46.138Z,99.68
2022-12-05T07:29:25.631Z,99.64
2022-12-05T07:32:01.302Z,99.69
2022-12-05T07:34:47.768Z,99.54
2022-12-05T07:38:29.573Z,99.57
2022-12-05T07:41:39.879Z,99.65
2022-12-05T07:44:54.612Z,99.77
2022-12-05T07:48:13.236Z,99.57
2022-12-05T07:51:19.201Z,99.53
2022-12-05T07:54:19.431Z,99.51
2022-12-05T07:57:19.319Z,99.26
2022-12-05T08:00:21.617Z,99.38
2022-12-05T08:03:24.705Z,99.31
2022-12-05T08:06:27.922Z,99.18
2022-12-05T08:09:31.112Z,99.11
2022-12-05T08:12:31.708Z,99.20
2022-12-05T08:15:34.127Z,99.27
2022-12-05T08:18:27.795Z,99.18
2022-12-05T08:21:27.785Z,99.39
2022-12-05T08:24:28.538Z,99.44
2022-12-05T08:27:28.425Z,99.46
2022-12-05T08:30:29.207Z,99.25
2022-12-05T08:34:11.402Z,99.45
2022-12-05T08:38:23.790Z,99.42
2022-12-05T08:47:03.538Z,99.36
2022-12-05T08:49:21.796Z,99.53
2022-12-05T09:00:09.186Z,99.39
2022-12-05T09:14:43.090Z,99.49
2022-12-05T09:22:46.468Z,99.00
2022-12-05T09:25:22.563Z,99.01
2022-12-05T09:28:17.920Z,98.96
2022-12-05T09:31:16.390Z,98.86
2022-12-05T09:34:26.754Z,99.11
2022-12-05T09:37:39.333Z,99.16
2022-12-05T09:45:11.684Z,99.46
2022-12-05T09:48:15.083Z,99.19
2022-12-05T09:50:51.728Z,98.95
2022-12-05T09:56:34.673Z,98.61
2022-12-05T09:59:35.641Z,98.75
2022-12-05T10:07:14.505Z,98.71
2022-12-05T10:11:06.589Z,98.72
2022-12-05T10:23:58.971Z,98.42
2022-12-05T10:26:43.261Z,98.73
2022-12-05T10:30:00.241Z,98.86
2022-12-05T10:32:59.654Z,98.84
2022-12-05T10:39:42.525Z,98.82
2022-12-05T10:42:47.803Z,98.81
2022-12-05T10:45:46.519Z,98.82
2022-12-05T10:48:38.431Z,98.69
2022-12-05T10:51:45.210Z,98.48
2022-12-05T10:54:52.873Z,98.63
2022-12-05T10:57:47.537Z,98.73
2022-12-05T11:01:01.462Z,98.76
2022-12-05T11:13:09.120Z,98.83
2022-12-05T11:16:48.888Z,98.77
2022-12-05T11:20:16.257Z,98.84
2022-12-05T11:23:39.645Z,98.70
2022-12-05T11:26:59.077Z,98.84
2022-12-05T11:30:11.365Z,99.15
2022-12-05T11:33:30.665Z,99.32
2022-12-05T11:36:49.981Z,99.61
2022-12-05T11:39:55.532Z,99.49
2022-12-05T11:43:17.413Z,99.25
2022-12-05T11:46:14.880Z,99.51
2022-12-05T11:49:00.952Z,99.33
2022-12-05T11:52:13.130Z,99.36
2022-12-05T11:55:07.098Z,99.28
2022-12-05T11:58:04.204Z,99.26
2022-12-05T12:00:55.424Z,99.73
2022-12-05T12:03:55.352Z,99.89
2022-12-05T12:07:17.933Z,99.87
2022-12-05T12:09:53.607Z,99.89
2022-12-05T12:12:58.783Z,99.92
2022-12-05T12:16:02.706Z,99.83
2022-12-05T12:19:42.940Z,99.66
2022-12-05T12:23:18.131Z,99.75
2022-12-05T12:26:13.025Z,99.53
2022-12-05T12:29:14.665Z,99.45
2022-12-05T12:32:16.308Z,99.43
2022-12-05T12:39:25.268Z,99.49
2022-12-05T12:43:00.018Z,99.56
2022-12-05T12:46:19.771Z,99.57
2022-12-05T12:49:53.784Z,99.34
2022-12-05T12:55:02.904Z,99.44
2022-12-05T12:57:25.663Z,99.46
2022-12-05T13:00:53.294Z,99.53
2022-12-05T13:09:51.393Z,99.72
2022-12-05T13:46:44.409Z,99.74
2022-12-05T13:54:05.533Z,99.44
2022-12-05T13:57:24.425Z,99.60
2022-12-05T14:15:27.957Z,99.90
2022-12-05T14:22:23.639Z,99.98
2022-12-05T14:28:09.509Z,99.95
2022-12-05T14:30:13.199Z,99.97
2022-12-05T14:34:44.403Z,100.00
2022-12-05T14:41:11.114Z,99.88
2022-12-05T14:44:56.951Z,99.81
2022-12-05T14:51:55.903Z,99.89
2022-12-05T14:55:45.437Z,100.00
2022-12-05T14:59:08.929Z,99.98
2022-12-05T15:13:24.478Z,100.00
2022-12-05T15:22:35.303Z,99.94
2022-12-05T15:24:18.162Z,99.91
2022-12-05T15:27:29.195Z,99.98
2022-12-05T15:34:50.816Z,100.00
2022-12-05T15:37:59.319Z,100.00
2022-12-05T15:40:41.507Z,100.00
2022-12-05T15:43:27.794Z,100.00
2022-12-05T15:46:15.654Z,100.00
2022-12-05T15:48:46.208Z,100.00
2022-12-05T15:51:25.345Z,100.00
2022-12-05T15:54:35.733Z,100.00
2022-12-05T15:57:23.514Z,100.00
2022-12-05T16:00:28.519Z,100.00
2022-12-05T16:20:36.987Z,100.00
2022-12-05T17:07:47.454Z,99.96
2022-12-05T17:18:44.063Z,100.00
2022-12-05T17:22:01.666Z,100.00
2022-12-05T18:06:34.333Z,99.99
2022-12-05T18:07:26.665Z,100.00
2022-12-05T18:09:16.813Z,100.00
2022-12-05T18:11:48.202Z,99.92
2022-12-05T18:14:38.834Z,99.86
2022-12-05T18:26:14.639Z,99.87
2022-12-05T18:28:59.965Z,99.76
2022-12-05T18:32:03.992Z,99.67
2022-12-05T18:34:41.032Z,99.79
2022-12-05T18:37:23.019Z,99.54
2022-12-05T18:40:05.728Z,99.51
2022-12-05T18:42:40.048Z,99.45
2022-12-05T18:45:12.928Z,99.36
2022-12-05T18:47:43.806Z,99.52
2022-12-05T18:50:15.336Z,99.53
2022-12-05T18:52:44.460Z,99.42
2022-12-05T18:55:20.818Z,99.32
2022-12-05T18:58:02.941Z,99.17
2022-12-05T19:00:38.800Z,99.04
2022-12-05T19:03:21.696Z,99.27
2022-12-05T19:06:12.653Z,99.15
2022-12-05T19:08:57.728Z,99.13
2022-12-05T19:11:47.575Z,99.17
2022-12-05T19:14:20.690Z,99.26
2022-12-05T19:17:03.123Z,99.27
2022-12-05T19:20:10.194Z,99.04
2022-12-05T19:22:49.567Z,99.14
2022-12-05T19:25:26.153Z,99.19
2022-12-05T19:28:03.470Z,99.11
2022-12-05T19:30:40.246Z,99.18
2022-12-05T19:33:23.793Z,99.31
2022-12-05T19:36:24.221Z,99.33
2022-12-05T19:39:05.570Z,99.35
2022-12-05T19:41:50.077Z,99.50
2022-12-05T19:44:26.579Z,99.44
2022-12-05T19:47:06.200Z,99.46
2022-12-05T19:49:49.870Z,99.61
2022-12-05T19:52:28.387Z,99.45
2022-12-05T19:55:03.826Z,99.34
2022-12-05T19:57:44.889Z,99.32
2022-12-05T20:00:22.255Z,99.46
2022-12-05T20:02:57.652Z,99.47
2022-12-05T20:05:33.144Z,99.47
2022-12-05T20:08:17.899Z,99.54
2022-12-05T20:10:57.413Z,99.56
2022-12-05T20:16:32.568Z,99.58
2022-12-05T20:19:21.284Z,99.61
2022-12-05T20:22:35.001Z,99.71
2022-12-05T20:25:35.135Z,99.65
2022-12-05T20:28:48.148Z,99.60
2022-12-05T20:31:55.220Z,99.69
2022-12-05T20:35:01.077Z,99.90
2022-12-05T20:38:07.149Z,99.82
2022-12-05T20:41:15.802Z,99.81
2022-12-05T20:43:59.271Z,99.72
2022-12-05T20:46:39.367Z,99.81
2022-12-05T20:49:44.593Z,99.75
2022-12-05T20:53:00.382Z,99.82
2022-12-05T20:56:25.829Z,99.77
2022-12-05T20:59:30.313Z,99.68
2022-12-05T21:02:04.866Z,99.72
2022-12-05T21:04:41.287Z,99.74
2022-12-05T21:07:12.249Z,99.63
2022-12-05T21:09:43.648Z,99.65
2022-12-05T21:12:14.790Z,99.90
2022-12-05T21:14:50.197Z,99.75
2022-12-05T21:17:51.697Z,99.86
2022-12-05T21:20:35.351Z,99.69
2022-12-05T21:23:38.817Z,99.55
2022-12-05T21:26:43.269Z,99.75
2022-12-05T21:45:29.506Z,99.73
2022-12-05T21:48:43.536Z,99.85
2022-12-05T21:51:41.632Z,99.76
2022-12-05T21:54:19.942Z,99.69
2022-12-05T21:57:48.489Z,99.84
2022-12-05T22:00:32.964Z,99.87
2022-12-05T22:06:45.762Z,99.67
2022-12-05T22:09:20.520Z,99.81
2022-12-05T22:12:04.395Z,99.77
2022-12-05T22:16:07.006Z,99.79
2022-12-05T22:22:06.711Z,99.76
2022-12-05T22:31:37.413Z,99.91
2022-12-05T22:34:43.230Z,99.92
2022-12-05T22:37:22.124Z,99.97
2022-12-05T22:39:52.965Z,99.98
2022-12-05T22:42:22.193Z,100.00
2022-12-05T22:44:57.778Z,100.00
2022-12-05T22:47:29.433Z,99.99
2022-12-05T22:49:58.629Z,100.00
2022-12-05T22:52:27.626Z,99.99
2022-12-05T22:54:58.052Z,100.00
2022-12-05T22:57:28.204Z,100.00
2022-12-05T22:59:58.502Z,100.00
2022-12-05T23:02:48.786Z,100.00
2022-12-05T23:05:21.191Z,100.00
2022-12-05T23:07:54.092Z,100.00
2022-12-05T23:10:24.480Z,100.00
2022-12-05T23:12:56.056Z,100.00
2022-12-05T23:15:28.887Z,100.00
2022-12-05T23:17:58.441Z,100.00
2022-12-05T23:20:29.622Z,100.00
2022-12-05T23:23:03.084Z,100.00
2022-12-05T23:25:33.902Z,100.00
2022-12-05T23:28:03.774Z,100.00
2022-12-05T23:30:33.348Z,100.00
2022-12-05T23:33:02.098Z,100.00
2022-12-05T23:35:32.398Z,100.00
2022-12-05T23:38:04.222Z,100.00
2022-12-05T23:40:38.346Z,100.00
2022-12-05T23:43:15.137Z,100.00
2022-12-05T23:45:51.152Z,100.00
2022-12-05T23:48:26.852Z,100.00
2022-12-05T23:51:04.765Z,100.00
2022-12-05T23:53:38.889Z,100.00
2022-12-05T23:56:09.136Z,100.00
2022-12-05T23:58:38.257Z,100.00
